createdAt,value
2022-12-08T00:02:05.677Z,17.87
2022-12-08T00:04:53.676Z,20.03
2022-12-08T00:07:39.207Z,18.67
2022-12-08T00:10:39.555Z,19.23
2022-12-08T00:12:56.630Z,18.27
2022-12-08T00:15:24.654Z,18.23
2022-12-08T00:17:53.830Z,15.80
2022-12-08T00:20:21.858Z,19.40
2022-12-08T00:22:49.728Z,17.37
2022-12-08T00:25:17.547Z,16.27
2022-12-08T00:27:45.430Z,16.10
2022-12-08T00:30:13.774Z,17.80
2022-12-08T00:32:41.688Z,17.47
2022-12-08T00:35:10.984Z,16.37
2022-12-08T00:37:38.821Z,18.27
2022-12-08T00:40:08.096Z,15.20
2022-12-08T00:42:35.959Z,16.50
2022-12-08T00:45:03.802Z,17.57
2022-12-08T00:47:31.665Z,16.20
2022-12-08T00:49:59.437Z,17.33
2022-12-08T00:52:28.663Z,17.97
2022-12-08T00:54:56.528Z,15.93
2022-12-08T00:57:24.331Z,19.50
2022-12-08T00:59:52.216Z,16.73
2022-12-08T01:02:20.198Z,17.50
2022-12-08T01:04:48.044Z,18.17
2022-12-08T01:07:16.329Z,19.90
2022-12-08T01:09:45.463Z,20.43
2022-12-08T01:12:13.276Z,24.93
2022-12-08T01:14:41.126Z,25.87
2022-12-08T01:17:09.211Z,26.33
2022-12-08T01:19:38.309Z,26.90
2022-12-08T01:22:06.166Z,28.30
2022-12-08T01:24:34.070Z,29.97
2022-12-08T01:27:03.453Z,27.53
2022-12-08T01:29:31.242Z,28.03
2022-12-08T01:31:59.060Z,26.97
2022-12-08T01:34:26.875Z,29.93
2022-12-08T01:36:54.752Z,31.13
2022-12-08T01:39:22.656Z,33.20
2022-12-08T01:41:50.467Z,30.33
2022-12-08T01:44:58.640Z,31.50
2022-12-08T01:47:32.193Z,32.40
2022-12-08T01:50:01.405Z,32.33
2022-12-08T01:52:34.490Z,28.97
2022-12-08T01:55:05.982Z,31.60
2022-12-08T01:57:37.588Z,30.43
2022-12-08T02:00:10.818Z,32.40
2022-12-08T02:02:47.282Z,32.20
2022-12-08T02:05:15.966Z,33.10
2022-12-08T02:07:44.745Z,31.07
2022-12-08T02:10:15.125Z,32.47
2022-12-08T02:12:43.069Z,31.30
2022-12-08T02:15:12.959Z,31.93
2022-12-08T02:18:02.168Z,33.07
2022-12-08T02:21:16.687Z,32.53
2022-12-08T02:24:18.691Z,32.83
2022-12-08T02:27:24.906Z,31.97
2022-12-08T02:30:16.576Z,33.43
2022-12-08T02:33:10.327Z,31.87
2022-12-08T02:35:45.288Z,33.40
2022-12-08T02:38:22.590Z,33.63
2022-12-08T02:41:00.923Z,31.17
2022-12-08T02:43:35.289Z,34.23
2022-12-08T02:46:08.887Z,30.07
2022-12-08T02:48:37.000Z,32.70
2022-12-08T02:51:06.645Z,32.97
2022-12-08T02:53:36.786Z,31.60
2022-12-08T02:56:15.937Z,30.10
2022-12-08T02:58:57.394Z,30.50
2022-12-08T03:01:45.706Z,30.03
2022-12-08T03:04:23.515Z,31.37
2022-12-08T03:06:59.981Z,28.67
2022-12-08T03:09:35.679Z,32.07
2022-12-08T03:12:10.815Z,31.97
2022-12-08T03:14:41.853Z,29.57
2022-12-08T03:17:10.197Z,27.90
2022-12-08T03:19:40.360Z,25.80
2022-12-08T03:22:11.282Z,26.27
2022-12-08T03:24:41.512Z,26.80
2022-12-08T03:27:10.766Z,25.50
2022-12-08T03:29:38.768Z,23.53
2022-12-08T03:32:14.792Z,23.40
2022-12-08T03:34:45.151Z,22.43
2022-12-08T03:37:14.460Z,18.63
2022-12-08T03:39:42.395Z,18.17
2022-12-08T03:42:10.269Z,19.37
2022-12-08T03:44:38.200Z,20.20
2022-12-08T03:47:06.225Z,18.10
2022-12-08T03:49:34.031Z,19.20
2022-12-08T03:52:01.922Z,18.70
2022-12-08T03:54:31.135Z,19.40
2022-12-08T03:56:58.978Z,18.87
2022-12-08T03:59:26.786Z,17.17
2022-12-08T04:01:54.644Z,19.23
2022-12-08T04:04:22.487Z,15.90
2022-12-08T04:06:50.568Z,19.00
2022-12-08T04:09:18.506Z,15.90
2022-12-08T04:11:47.811Z,14.90
2022-12-08T04:14:15.695Z,15.80
2022-12-08T04:16:43.545Z,15.07
2022-12-08T04:19:11.320Z,16.30
2022-12-08T04:21:39.163Z,13.63
2022-12-08T04:24:07.640Z,13.33
2022-12-08T04:26:35.517Z,14.17
2022-12-08T04:29:04.712Z,13.60
2022-12-08T04:31:32.623Z,13.67
2022-12-08T04:34:00.521Z,12.23
2022-12-08T04:36:28.371Z,11.60
2022-12-08T04:38:56.155Z,9.80
2022-12-08T04:41:24.076Z,9.73
2022-12-08T04:43:52.116Z,8.30
2022-12-08T04:46:21.438Z,8.07
2022-12-08T04:48:49.366Z,9.40
2022-12-08T04:51:18.747Z,9.77
2022-12-08T04:53:47.230Z,7.80
2022-12-08T04:56:17.368Z,9.13
2022-12-08T04:58:45.456Z,8.90
2022-12-08T05:01:14.051Z,9.60
2022-12-08T05:03:43.525Z,7.63
2022-12-08T05:06:13.547Z,8.77
2022-12-08T05:08:41.621Z,8.70
2022-12-08T05:11:11.189Z,9.57
2022-12-08T05:13:39.047Z,7.50
2022-12-08T05:16:08.963Z,9.50
2022-12-08T05:18:37.275Z,10.23
2022-12-08T05:21:07.352Z,8.00
2022-12-08T05:23:35.647Z,10.07
2022-12-08T05:26:03.588Z,9.10
2022-12-08T05:28:46.866Z,8.70
2022-12-08T05:31:16.667Z,8.60
2022-12-08T05:33:45.893Z,9.13
2022-12-08T05:36:16.941Z,7.40
2022-12-08T05:38:45.731Z,9.23
2022-12-08T05:41:17.157Z,8.77
2022-12-08T05:43:45.132Z,8.50
2022-12-08T05:46:13.450Z,8.53
2022-12-08T05:48:41.593Z,9.40
2022-12-08T05:51:17.793Z,9.23
2022-12-08T05:53:45.690Z,7.10
2022-12-08T05:56:13.704Z,7.07
2022-12-08T05:58:41.609Z,8.40
2022-12-08T06:01:18.719Z,6.90
2022-12-08T06:03:46.609Z,9.67
2022-12-08T06:06:15.750Z,8.53
2022-12-08T06:08:43.600Z,8.23
2022-12-08T06:11:17.792Z,8.13
2022-12-08T06:13:45.782Z,6.73
2022-12-08T06:16:13.747Z,8.23
2022-12-08T06:18:41.759Z,8.47
2022-12-08T06:21:11.571Z,13.57
2022-12-08T06:23:41.047Z,12.03
2022-12-08T06:26:11.078Z,15.27
2022-12-08T06:28:39.742Z,13.70
2022-12-08T06:31:09.073Z,9.40
2022-12-08T06:33:37.587Z,8.70
2022-12-08T06:36:06.054Z,9.07
2022-12-08T06:38:34.051Z,9.17
2022-12-08T06:41:03.268Z,7.87
2022-12-08T06:43:31.080Z,8.43
2022-12-08T06:45:59.275Z,10.40
2022-12-08T06:48:27.254Z,9.67
2022-12-08T06:50:55.039Z,7.00
2022-12-08T06:53:22.921Z,8.47
2022-12-08T06:56:01.551Z,7.87
2022-12-08T06:58:30.926Z,7.80
2022-12-08T07:00:58.855Z,7.60
2022-12-08T07:03:26.882Z,8.20
2022-12-08T07:06:03.275Z,7.80
2022-12-08T07:08:32.300Z,7.83
2022-12-08T07:11:00.251Z,7.33
2022-12-08T07:13:28.076Z,6.57
2022-12-08T07:15:57.220Z,8.90
2022-12-08T07:18:25.259Z,9.20
2022-12-08T07:20:53.053Z,8.63
2022-12-08T07:23:20.981Z,8.87
2022-12-08T07:25:48.789Z,8.33
2022-12-08T07:28:16.613Z,8.20
2022-12-08T07:30:44.495Z,9.20
2022-12-08T07:33:13.723Z,8.27
2022-12-08T07:35:46.366Z,7.30
2022-12-08T07:38:17.020Z,9.50
2022-12-08T07:40:44.809Z,7.93
2022-12-08T07:43:12.649Z,9.03
2022-12-08T07:45:41.653Z,9.30
2022-12-08T07:48:10.037Z,8.10
2022-12-08T07:50:39.297Z,9.27
2022-12-08T07:53:07.459Z,9.30
2022-12-08T07:55:35.356Z,7.87
2022-12-08T07:58:03.222Z,8.53
2022-12-08T08:00:31.086Z,8.60
2022-12-08T08:02:59.042Z,8.13
2022-12-08T08:05:27.261Z,9.70
2022-12-08T08:07:56.710Z,10.67
2022-12-08T08:10:24.547Z,8.87
2022-12-08T08:12:52.383Z,8.83
2022-12-08T08:15:21.158Z,9.80
2022-12-08T08:17:51.039Z,9.50
2022-12-08T08:20:19.177Z,9.03
2022-12-08T08:22:48.218Z,9.60
2022-12-08T08:25:18.853Z,12.70
2022-12-08T08:27:48.273Z,13.73
2022-12-08T08:30:20.812Z,12.23
2022-12-08T08:32:49.191Z,12.80
2022-12-08T08:35:17.513Z,13.83
2022-12-08T08:37:48.926Z,13.77
2022-12-08T08:40:19.082Z,11.93
2022-12-08T08:42:47.036Z,10.73
2022-12-08T08:45:14.871Z,11.27
2022-12-08T08:47:42.912Z,11.90
2022-12-08T08:50:10.976Z,12.10
2022-12-08T08:52:38.793Z,12.83
2022-12-08T08:55:07.646Z,13.67
2022-12-08T08:57:36.859Z,14.03
2022-12-08T09:00:05.986Z,12.57
2022-12-08T09:02:34.943Z,16.33
2022-12-08T09:05:02.829Z,14.20
2022-12-08T09:07:30.926Z,13.60
2022-12-08T09:10:01.886Z,14.23
2022-12-08T09:12:30.931Z,15.63
2022-12-08T09:15:00.132Z,14.63
2022-12-08T09:17:27.952Z,14.53
2022-12-08T09:19:55.729Z,15.43
2022-12-08T09:22:23.991Z,17.63
2022-12-08T09:24:51.806Z,14.10
2022-12-08T09:27:19.797Z,14.40
2022-12-08T09:29:47.608Z,14.70
2022-12-08T09:32:16.791Z,15.70
2022-12-08T09:34:50.454Z,14.00
2022-12-08T09:37:19.920Z,14.17
2022-12-08T09:39:48.185Z,15.07
2022-12-08T09:42:27.030Z,16.83
2022-12-08T09:45:01.500Z,17.57
2022-12-08T09:47:36.326Z,18.40
2022-12-08T09:50:08.448Z,17.60
2022-12-08T09:52:42.385Z,15.73
2022-12-08T09:55:18.363Z,14.37
2022-12-08T09:57:51.629Z,15.00
2022-12-08T10:00:24.033Z,15.13
2022-12-08T10:02:53.487Z,16.17
2022-12-08T10:05:23.836Z,16.37
2022-12-08T10:08:04.696Z,15.93
2022-12-08T10:10:40.053Z,15.03
2022-12-08T10:13:15.419Z,14.70
2022-12-08T10:15:48.812Z,14.17
2022-12-08T10:18:21.022Z,13.80
2022-12-08T10:20:51.038Z,16.97
2022-12-08T10:23:26.544Z,14.47
2022-12-08T10:26:02.455Z,14.27
2022-12-08T10:28:30.540Z,15.70
2022-12-08T10:30:58.384Z,16.00
2022-12-08T10:33:29.601Z,15.43
2022-12-08T10:36:00.523Z,16.03
2022-12-08T10:38:31.918Z,16.60
2022-12-08T10:41:05.302Z,16.47
2022-12-08T10:43:34.300Z,16.10
2022-12-08T10:46:13.146Z,14.23
2022-12-08T10:48:51.881Z,12.50
2022-12-08T10:51:30.328Z,12.83
2022-12-08T10:53:58.398Z,11.97
2022-12-08T10:56:28.591Z,12.23
2022-12-08T10:59:15.388Z,9.37
2022-12-08T11:01:47.885Z,8.60
2022-12-08T11:04:20.621Z,8.80
2022-12-08T11:06:49.673Z,8.63
2022-12-08T11:09:31.512Z,9.87
2022-12-08T11:12:00.682Z,9.53
2022-12-08T11:14:31.060Z,9.47
2022-12-08T11:17:10.118Z,9.27
2022-12-08T11:19:40.678Z,9.23
2022-12-08T11:22:22.321Z,12.50
2022-12-08T11:24:59.854Z,9.83
2022-12-08T11:27:28.018Z,10.17
2022-12-08T11:29:56.076Z,9.10
2022-12-08T11:32:24.007Z,9.93
2022-12-08T11:34:58.929Z,9.23
2022-12-08T11:37:34.703Z,9.30
2022-12-08T11:40:08.588Z,10.93
2022-12-08T11:42:45.024Z,12.80
2022-12-08T11:45:26.801Z,11.13
2022-12-08T11:48:02.767Z,10.00
2022-12-08T11:50:41.651Z,9.97
2022-12-08T11:53:17.776Z,9.50
2022-12-08T11:55:51.586Z,11.60
2022-12-08T11:58:23.616Z,8.27
2022-12-08T12:00:51.651Z,7.57
2022-12-08T12:03:29.635Z,8.83
2022-12-08T12:06:46.452Z,7.13
2022-12-08T12:09:14.559Z,7.30
2022-12-08T12:12:09.379Z,7.23
2022-12-08T12:15:07.167Z,6.70
2022-12-08T12:17:43.843Z,8.03
2022-12-08T12:20:17.560Z,8.23
2022-12-08T12:22:50.950Z,7.37
2022-12-08T12:25:22.281Z,10.03
2022-12-08T12:27:51.061Z,9.33
2022-12-08T12:30:24.728Z,9.23
2022-12-08T12:32:56.499Z,12.43
2022-12-08T12:35:33.663Z,11.60
2022-12-08T12:38:27.202Z,9.40
2022-12-08T12:41:01.226Z,8.77
2022-12-08T12:43:32.871Z,11.50
2022-12-08T12:46:39.315Z,9.23
2022-12-08T12:49:45.891Z,9.47
2022-12-08T12:52:43.120Z,9.47
2022-12-08T12:55:52.942Z,10.00
2022-12-08T12:58:39.036Z,8.27
2022-12-08T13:01:44.479Z,9.30
2022-12-08T13:04:12.743Z,10.00
2022-12-08T13:06:43.237Z,12.50
2022-12-08T13:09:22.739Z,12.37
2022-12-08T13:11:54.301Z,11.20
2022-12-08T13:14:32.356Z,12.10
2022-12-08T13:17:02.411Z,10.83
2022-12-08T13:19:36.969Z,9.47
2022-12-08T13:22:05.104Z,9.73
2022-12-08T13:24:36.094Z,8.27
2022-12-08T13:27:52.426Z,9.10
2022-12-08T13:30:43.428Z,9.27
2022-12-08T13:33:18.486Z,9.53
2022-12-08T13:35:57.317Z,10.07
2022-12-08T13:38:30.890Z,11.07
2022-12-08T13:41:01.530Z,12.33
2022-12-08T13:43:50.985Z,9.20
2022-12-08T13:51:23.830Z,9.43
2022-12-08T13:53:56.166Z,9.80
2022-12-08T13:58:06.218Z,8.83
2022-12-08T14:00:35.532Z,8.83
2022-12-08T14:03:03.669Z,8.17
2022-12-08T14:06:11.229Z,8.20
2022-12-08T14:08:58.945Z,8.47
2022-12-08T14:11:34.380Z,8.00
2022-12-08T14:14:05.076Z,9.73
2022-12-08T14:16:39.473Z,9.33
2022-12-08T14:19:15.956Z,8.63
2022-12-08T14:21:48.055Z,11.53
2022-12-08T14:24:15.928Z,11.30
2022-12-08T14:26:47.421Z,12.27
2022-12-08T14:29:39.906Z,8.53
2022-12-08T14:32:21.521Z,10.27
2022-12-08T14:34:54.787Z,14.40
2022-12-08T14:37:23.545Z,13.13
2022-12-08T14:39:53.003Z,13.83
2022-12-08T14:42:25.023Z,11.27
2022-12-08T14:45:06.614Z,10.60
2022-12-08T14:47:35.884Z,8.47
2022-12-08T14:50:07.281Z,10.53
2022-12-08T14:52:35.387Z,9.73
2022-12-08T14:55:03.222Z,11.33
2022-12-08T14:57:36.225Z,10.43
2022-12-08T15:00:12.142Z,10.23
2022-12-08T15:02:47.041Z,11.23
2022-12-08T15:05:19.034Z,13.33
2022-12-08T15:07:49.898Z,11.90
2022-12-08T15:10:24.727Z,15.00
2022-12-08T15:13:01.748Z,14.57
2022-12-08T15:15:31.871Z,11.60
2022-12-08T15:18:05.172Z,17.27
2022-12-08T15:20:41.566Z,13.43
2022-12-08T15:23:27.182Z,11.40
2022-12-08T15:25:56.046Z,15.63
2022-12-08T15:28:29.790Z,15.57
2022-12-08T15:30:58.766Z,23.17
2022-12-08T15:33:28.169Z,15.93
2022-12-08T15:35:56.087Z,23.93
2022-12-08T15:38:26.445Z,13.00
2022-12-08T15:40:55.344Z,12.90
2022-12-08T15:43:23.804Z,13.07
2022-12-08T15:45:58.941Z,13.10
2022-12-08T15:48:30.174Z,14.63
2022-12-08T15:50:58.431Z,15.30
2022-12-08T15:53:26.319Z,13.93
2022-12-08T15:58:58.653Z,11.07
2022-12-08T16:01:27.247Z,11.37
2022-12-08T16:09:39.291Z,11.60
2022-12-08T16:12:25.707Z,16.77
2022-12-08T16:17:41.981Z,15.40
2022-12-08T16:20:14.898Z,14.17
2022-12-08T16:23:07.943Z,26.50
2022-12-08T16:25:46.005Z,25.80
2022-12-08T16:28:52.382Z,21.30
2022-12-08T16:31:13.050Z,20.23
2022-12-08T16:33:41.954Z,18.67
2022-12-08T16:36:12.075Z,18.37
2022-12-08T16:38:40.011Z,15.40
2022-12-08T16:41:25.679Z,13.50
2022-12-08T16:43:53.498Z,14.10
2022-12-08T16:46:23.722Z,13.90
2022-12-08T16:48:51.661Z,12.47
2022-12-08T16:51:26.654Z,13.80
2022-12-08T16:53:55.224Z,16.43
2022-12-08T16:56:30.365Z,35.50
2022-12-08T16:59:00.612Z,20.50
2022-12-08T17:01:28.531Z,18.90
2022-12-08T17:04:29.265Z,19.40
2022-12-08T17:06:45.667Z,17.17
2022-12-08T17:09:13.453Z,18.43
2022-12-08T17:11:43.681Z,16.90
2022-12-08T17:14:12.186Z,19.83
2022-12-08T17:16:40.191Z,17.37
2022-12-08T17:19:08.455Z,19.33
2022-12-08T17:21:36.596Z,21.87
2022-12-08T17:24:06.185Z,20.33
2022-12-08T17:26:34.176Z,18.33
2022-12-08T17:29:03.275Z,23.13
2022-12-08T17:31:32.950Z,23.07
2022-12-08T17:34:01.176Z,24.07
2022-12-08T17:36:29.105Z,23.67
2022-12-08T17:38:57.524Z,21.27
2022-12-08T17:41:26.711Z,18.90
2022-12-08T17:43:54.520Z,21.70
2022-12-08T17:46:23.240Z,21.23
2022-12-08T17:48:51.364Z,17.03
2022-12-08T17:51:20.085Z,20.13
2022-12-08T17:53:47.880Z,28.30
2022-12-08T17:56:18.291Z,17.40
2022-12-08T17:58:52.849Z,18.70
2022-12-08T18:01:22.800Z,26.00
2022-12-08T18:03:50.857Z,27.10
2022-12-08T18:06:18.719Z,24.27
2022-12-08T18:08:46.553Z,22.87
2022-12-08T18:11:17.086Z,24.53
2022-12-08T18:13:47.038Z,24.10
2022-12-08T18:16:15.364Z,19.57
2022-12-08T18:18:43.302Z,17.23
2022-12-08T18:21:12.087Z,18.47
2022-12-08T18:23:41.080Z,15.60
2022-12-08T18:26:11.744Z,16.77
2022-12-08T18:28:40.136Z,17.47
2022-12-08T18:31:11.622Z,16.97
2022-12-08T18:33:41.739Z,17.73
2022-12-08T18:36:11.282Z,19.57
2022-12-08T18:38:39.990Z,21.20
2022-12-08T18:41:09.005Z,21.50
2022-12-08T18:43:37.392Z,22.03
2022-12-08T18:46:09.283Z,23.80
2022-12-08T18:48:41.266Z,23.97
2022-12-08T18:51:11.216Z,26.33
2022-12-08T18:53:39.584Z,31.63
2022-12-08T18:56:08.471Z,29.13
2022-12-08T18:58:36.704Z,37.60
2022-12-08T19:01:04.542Z,33.40
2022-12-08T19:03:32.499Z,30.67
2022-12-08T19:06:05.365Z,31.77
2022-12-08T19:08:33.864Z,31.23
2022-12-08T19:11:01.862Z,30.90
2022-12-08T19:13:30.364Z,37.40
2022-12-08T19:15:58.228Z,27.70
2022-12-08T19:18:26.086Z,34.33
2022-12-08T19:20:56.630Z,30.73
2022-12-08T19:23:26.070Z,29.03
2022-12-08T19:25:53.861Z,31.90
2022-12-08T19:28:21.722Z,29.10
2022-12-08T19:30:49.632Z,31.93
2022-12-08T19:33:17.757Z,30.03
2022-12-08T19:35:52.255Z,32.17
2022-12-08T19:38:20.692Z,30.63
2022-12-08T19:41:09.795Z,28.33
2022-12-08T19:43:55.181Z,27.97
2022-12-08T19:46:23.230Z,32.37
2022-12-08T19:48:51.226Z,36.90
2022-12-08T19:51:19.128Z,25.03
2022-12-08T19:53:47.929Z,34.60
2022-12-08T19:56:17.297Z,31.80
2022-12-08T19:58:45.148Z,29.80
2022-12-08T20:01:12.992Z,32.27
2022-12-08T20:03:40.974Z,33.30
2022-12-08T20:06:14.171Z,33.70
2022-12-08T20:08:44.914Z,30.27
2022-12-08T20:11:18.285Z,30.13
2022-12-08T20:13:47.636Z,29.90
2022-12-08T20:16:16.865Z,28.40
2022-12-08T20:18:47.634Z,32.70
2022-12-08T20:21:15.722Z,47.83
2022-12-08T20:23:45.330Z,45.13
2022-12-08T20:26:16.981Z,38.90
2022-12-08T20:28:46.379Z,40.83
2022-12-08T20:31:19.052Z,36.60
2022-12-08T20:33:47.953Z,34.53
2022-12-08T20:36:18.729Z,33.10
2022-12-08T20:38:47.213Z,33.73
2022-12-08T20:41:16.575Z,32.80
2022-12-08T20:43:47.102Z,34.57
2022-12-08T20:46:17.790Z,32.70
2022-12-08T20:48:46.023Z,32.73
2022-12-08T20:51:15.283Z,34.80
2022-12-08T20:53:43.388Z,31.47
2022-12-08T20:56:15.695Z,34.13
2022-12-08T20:58:44.023Z,37.77
2022-12-08T21:01:15.431Z,33.57
2022-12-08T21:03:44.187Z,33.90
2022-12-08T21:06:12.760Z,33.43
2022-12-08T21:08:41.927Z,31.57
2022-12-08T21:11:10.675Z,31.00
2022-12-08T21:13:39.825Z,31.83
2022-12-08T21:16:09.398Z,29.43
2022-12-08T21:18:39.921Z,28.80
2022-12-08T21:21:10.347Z,31.63
2022-12-08T21:23:38.932Z,31.60
2022-12-08T21:26:12.080Z,35.73
2022-12-08T21:28:40.080Z,32.37
2022-12-08T21:31:09.019Z,48.03
2022-12-08T21:33:38.857Z,43.83
2022-12-08T21:36:09.461Z,33.50
2022-12-08T21:38:38.561Z,29.40
2022-12-08T21:41:08.852Z,36.90
2022-12-08T21:43:37.235Z,73.27
2022-12-08T21:46:05.652Z,44.47
2022-12-08T21:48:33.772Z,36.47
2022-12-08T21:51:06.482Z,67.47
2022-12-08T21:53:34.552Z,53.37
2022-12-08T21:56:02.626Z,45.20
2022-12-08T21:58:32.380Z,49.80
2022-12-08T22:01:06.690Z,44.27
2022-12-08T22:03:34.789Z,51.90
2022-12-08T22:06:07.076Z,47.73
2022-12-08T22:08:35.340Z,48.63
2022-12-08T22:11:03.842Z,49.53
2022-12-08T22:13:34.303Z,39.57
2022-12-08T22:16:04.444Z,45.30
2022-12-08T22:18:32.935Z,46.53
2022-12-08T22:21:01.531Z,43.60
2022-12-08T22:23:30.857Z,46.73
2022-12-08T22:25:59.651Z,45.80
2022-12-08T22:28:28.766Z,47.43
2022-12-08T22:30:56.670Z,45.57
2022-12-08T22:33:24.793Z,58.03
2022-12-08T22:35:57.470Z,97.80
2022-12-08T22:38:25.940Z,60.03
2022-12-08T22:40:56.659Z,76.83
2022-12-08T22:43:24.609Z,123.67
2022-12-08T22:45:52.624Z,67.47
2022-12-08T22:48:20.583Z,103.83
2022-12-08T22:50:48.406Z,129.97
2022-12-08T22:53:16.336Z,90.83
2022-12-08T22:55:45.362Z,49.03
2022-12-08T22:58:14.671Z,97.40
2022-12-08T23:00:42.661Z,55.10
2022-12-08T23:03:10.579Z,90.40
2022-12-08T23:05:40.437Z,85.40
2022-12-08T23:08:10.085Z,114.87
2022-12-08T23:10:37.911Z,61.33
2022-12-08T23:13:05.868Z,84.70
2022-12-08T23:15:35.294Z,142.40
2022-12-08T23:18:03.436Z,61.87
2022-12-08T23:20:31.623Z,57.57
2022-12-08T23:22:59.981Z,58.53
2022-12-08T23:25:27.844Z,132.10
2022-12-08T23:27:55.693Z,75.73
2022-12-08T23:30:23.603Z,55.43
2022-12-08T23:32:55.747Z,53.57
2022-12-08T23:35:24.219Z,50.27
2022-12-08T23:37:53.333Z,68.80
2022-12-08T23:40:21.497Z,102.43
2022-12-08T23:42:49.350Z,61.67
2022-12-08T23:45:17.329Z,60.57
2022-12-08T23:47:45.589Z,54.73
2022-12-08T23:50:14.952Z,61.73
2022-12-08T23:52:42.723Z,57.37
2022-12-08T23:55:11.287Z,71.13
2022-12-08T23:57:39.291Z,59.47
